Time;durP1;ratioP1;P1;durP2;ratioP2;P2;SDS_P1;SDS_P2;PMS_P1;PMS_P2;Temp;Humidity;BMP_temperature;BMP_pressure;BME280_temperature;BME280_humidity;BME280_pressure;Samples;Min_cycle;Max_cycle;Signal;HPM_P1;HPM_P2
2023/12/27 00:01:17;;;;;;;7.25;3.63;;;;;;;9.43;47.03;95271.06;5109317;28;20056;-77
2023/12/27 00:03:42;;;;;;;6.07;3.50;;;;;;;9.45;46.90;95268.66;5108421;28;20408;-78
2023/12/27 00:06:08;;;;;;;7.07;4.07;;;;;;;9.47;46.59;95274.50;5109230;28;20031;-78
2023/12/27 00:08:35;;;;;;;5.85;3.50;;;;;;;9.38;46.60;95279.00;5107949;28;20024;-78
2023/12/27 00:11:01;;;;;;;6.82;4.60;;;;;;;9.38;46.46;95279.00;5108445;28;20185;-78
2023/12/27 00:13:27;;;;;;;10.13;4.13;;;;;;;9.33;46.74;95274.78;5107269;28;20036;-78
2023/12/27 00:15:52;;;;;;;5.85;3.47;;;;;;;9.31;46.79;95277.94;5108920;28;20055;-78
2023/12/27 00:18:17;;;;;;;10.32;4.38;;;;;;;9.28;46.67;95289.75;5108218;28;20023;-78
2023/12/27 00:20:44;;;;;;;6.15;3.47;;;;;;;9.25;47.01;95289.81;5108355;28;20024;-78
2023/12/27 00:23:09;;;;;;;6.07;3.38;;;;;;;9.13;47.20;95291.22;5108725;28;20024;-77
2023/12/27 00:25:35;;;;;;;8.20;4.25;;;;;;;9.11;47.25;95298.28;5107845;28;20103;-78
2023/12/27 00:28:00;;;;;;;7.47;3.95;;;;;;;9.11;47.29;95303.78;5109357;28;20028;-78
2023/12/27 00:30:26;;;;;;;7.20;3.70;;;;;;;9.10;47.35;95307.72;5107609;28;20023;-78
2023/12/27 00:32:51;;;;;;;9.23;4.03;;;;;;;9.08;47.41;95315.59;5109481;27;20015;-78
2023/12/27 00:35:16;;;;;;;5.97;3.58;;;;;;;9.05;47.33;95308.97;5107718;28;20429;-77
2023/12/27 00:37:42;;;;;;;6.95;3.30;;;;;;;8.96;47.59;95317.75;5108533;28;20027;-79
2023/12/27 00:40:08;;;;;;;6.57;3.80;;;;;;;8.88;47.90;95319.03;5108868;28;20019;-78
2023/12/27 00:42:33;;;;;;;7.50;3.42;;;;;;;8.92;47.83;95313.50;5107753;28;20058;-77
2023/12/27 00:44:59;;;;;;;6.78;3.90;;;;;;;8.88;47.86;95318.25;5108976;28;20028;-77
2023/12/27 00:47:24;;;;;;;5.22;3.53;;;;;;;8.80;47.97;95317.59;5107199;28;20667;-77
2023/12/27 00:49:49;;;;;;;7.82;3.28;;;;;;;8.74;48.09;95322.78;5108766;28;20122;-77
2023/12/27 00:52:15;;;;;;;8.13;3.95;;;;;;;8.71;48.24;95311.88;5107548;27;20099;-77
2023/12/27 00:54:40;;;;;;;7.50;3.65;;;;;;;8.71;48.55;95311.88;5108471;28;20108;-77
2023/12/27 00:57:06;;;;;;;6.20;3.78;;;;;;;8.67;48.37;95322.13;5108120;28;20019;-78
2023/12/27 00:59:31;;;;;;;6.00;3.70;;;;;;;8.66;48.65;95326.03;5107455;28;20490;-77
2023/12/27 01:01:56;;;;;;;6.65;3.85;;;;;;;8.62;48.81;95345.28;5108127;28;20026;-77
2023/12/27 01:04:22;;;;;;;9.10;3.72;;;;;;;8.64;48.59;95339.38;5107045;28;20044;-78
2023/12/27 01:06:47;;;;;;;6.72;4.13;;;;;;;8.60;48.89;95347.69;5108716;28;20102;-78
2023/12/27 01:09:12;;;;;;;9.43;3.83;;;;;;;8.59;48.79;95345.34;5106728;28;20019;-78
2023/12/27 01:11:38;;;;;;;8.05;3.83;;;;;;;8.55;49.06;95350.09;5108245;28;20019;-78
2023/12/27 01:14:03;;;;;;;7.32;3.70;;;;;;;8.53;49.26;95353.25;5106868;28;20055;-78
2023/12/27 01:16:29;;;;;;;6.90;4.10;;;;;;;8.49;49.42;95347.06;5107562;28;20028;-78
2023/12/27 01:18:54;;;;;;;11.07;4.28;;;;;;;8.48;49.58;95349.00;5107456;28;20035;-77
2023/12/27 01:21:20;;;;;;;6.80;3.60;;;;;;;8.50;49.39;95351.34;5106790;28;20053;-78
2023/12/27 01:23:45;;;;;;;7.72;3.38;;;;;;;8.41;49.75;95354.59;5108261;28;20020;-78
2023/12/27 01:26:11;;;;;;;11.15;4.15;;;;;;;8.37;50.13;95344.84;5105623;28;20468;-79
2023/12/27 01:28:36;;;;;;;9.88;4.35;;;;;;;8.36;50.10;95355.03;5108483;28;20031;-77
2023/12/27 01:31:02;;;;;;;6.68;3.65;;;;;;;8.40;50.27;95350.28;5106567;28;20028;-78
2023/12/27 01:33:27;;;;;;;7.50;3.78;;;;;;;8.40;50.28;95344.81;5107436;28;20035;-78
2023/12/27 01:35:53;;;;;;;7.18;4.30;;;;;;;8.34;50.96;95353.88;5107329;28;20095;-77
2023/12/27 01:38:18;;;;;;;7.32;3.38;;;;;;;8.34;50.70;95357.41;5106663;28;20453;-78
2023/12/27 01:40:51;;;;;;;9.15;4.03;;;;;;;8.41;50.99;95340.09;5108031;28;20030;-77
2023/12/27 01:43:16;;;;;;;7.80;4.07;;;;;;;8.39;50.81;95346.00;5106368;28;20030;-78
2023/12/27 01:45:42;;;;;;;6.15;3.63;;;;;;;8.49;50.83;95367.00;5108043;28;20027;-78
2023/12/27 01:48:08;;;;;;;10.65;3.90;;;;;;;8.54;50.74;95365.75;5106450;28;20062;-77
2023/12/27 01:50:33;;;;;;;7.35;4.00;;;;;;;8.54;51.02;95354.00;5105890;28;20471;-78
2023/12/27 01:52:59;;;;;;;8.82;4.20;;;;;;;8.59;50.98;95368.03;5105103;28;20031;-78
2023/12/27 01:55:24;;;;;;;8.48;4.10;;;;;;;8.60;50.93;95371.53;5106595;28;20056;-78
2023/12/27 01:57:50;;;;;;;7.07;3.63;;;;;;;8.65;50.82;95366.38;5107369;28;20023;-78
2023/12/27 02:00:15;;;;;;;9.15;3.95;;;;;;;8.67;50.63;95371.47;5104975;28;20024;-78
2023/12/27 02:02:41;;;;;;;9.88;4.03;;;;;;;8.66;50.69;95367.94;5107674;28;20116;-78
2023/12/27 02:05:07;;;;;;;10.32;3.95;;;;;;;8.63;50.26;95366.03;5105846;28;20051;-76
2023/12/27 02:07:33;;;;;;;9.50;3.90;;;;;;;8.62;50.69;95375.44;5107182;28;20028;-77
2023/12/27 02:09:58;;;;;;;8.85;4.05;;;;;;;8.71;50.50;95378.41;5104576;28;20051;-78
2023/12/27 02:12:25;;;;;;;8.35;3.83;;;;;;;8.70;50.69;95378.84;5106917;28;20458;-77
2023/12/27 02:14:50;;;;;;;11.48;4.78;;;;;;;8.60;50.61;95374.28;5106029;28;20438;-79
2023/12/27 02:17:16;;;;;;;9.30;4.68;;;;;;;8.63;50.95;95379.72;5105873;28;20016;-78
2023/12/27 02:19:41;;;;;;;7.18;3.92;;;;;;;8.54;50.88;95373.19;5105127;28;20055;-78
2023/12/27 02:22:09;;;;;;;6.72;4.13;;;;;;;8.55;50.99;95370.06;5104347;28;20071;-78
2023/12/27 02:24:34;;;;;;;9.30;4.57;;;;;;;8.57;51.30;95364.94;5105692;28;20059;-77
2023/12/27 02:27:00;;;;;;;8.52;4.35;;;;;;;8.55;51.77;95356.38;5105446;28;20477;-77
2023/12/27 02:29:25;;;;;;;8.43;3.88;;;;;;;8.56;52.03;95349.69;5106837;28;20073;-77
2023/12/27 02:31:52;;;;;;;8.80;4.18;;;;;;;8.48;52.27;95338.03;5106030;28;20587;-77
2023/12/27 02:34:18;;;;;;;7.80;3.75;;;;;;;8.72;52.78;95363.56;5105764;28;20122;-77
2023/12/27 02:36:43;;;;;;;6.30;3.63;;;;;;;8.74;52.98;95363.13;5106161;28;20024;-78
2023/12/27 02:39:09;;;;;;;8.50;3.65;;;;;;;8.68;53.34;95359.31;5105581;28;20016;-79
2023/12/27 02:41:34;;;;;;;7.60;4.13;;;;;;;8.74;53.54;95361.16;5106600;28;20053;-78
2023/12/27 02:43:59;;;;;;;8.43;3.85;;;;;;;8.79;53.64;95359.91;5105165;28;20336;-77
2023/12/27 02:46:25;;;;;;;10.32;3.88;;;;;;;8.82;53.80;95361.03;5106755;28;20024;-78
2023/12/27 02:48:50;;;;;;;9.48;3.53;;;;;;;8.86;53.55;95364.50;5105454;28;20062;-78
2023/12/27 02:51:16;;;;;;;12.90;4.47;;;;;;;8.99;53.69;95368.22;5106074;28;20035;-78
2023/12/27 02:53:41;;;;;;;10.07;3.78;;;;;;;9.06;53.51;95368.13;5105891;28;20031;-78
2023/12/27 02:56:08;;;;;;;7.90;4.55;;;;;;;9.14;53.15;95369.56;5105454;28;20138;-76
2023/12/27 02:58:33;;;;;;;9.77;3.70;;;;;;;9.24;53.22;95376.84;5106100;28;20031;-78
2023/12/27 03:00:59;;;;;;;9.82;4.00;;;;;;;9.27;52.85;95381.47;5105231;28;20148;-78
2023/12/27 03:03:24;;;;;;;8.73;3.83;;;;;;;9.30;52.86;95388.09;5106324;28;20023;-78
2023/12/27 03:05:50;;;;;;;6.68;3.63;;;;;;;9.32;52.69;95375.50;5104971;28;20061;-78
2023/12/27 03:08:16;;;;;;;5.95;4.35;;;;;;;9.38;52.61;95394.25;5106473;28;20035;-78
2023/12/27 03:10:41;;;;;;;9.60;3.90;;;;;;;9.38;52.83;95391.50;5105805;28;20034;-77
2023/12/27 03:13:07;;;;;;;7.97;3.70;;;;;;;9.31;52.56;95406.88;5105852;28;20020;-79
2023/12/27 03:15:32;;;;;;;7.85;4.03;;;;;;;9.29;52.57;95401.06;5105357;28;20044;-77
2023/12/27 03:17:57;;;;;;;8.75;3.90;;;;;;;9.36;52.59;95402.13;5105176;28;20059;-77
2023/12/27 03:20:23;;;;;;;6.93;4.35;;;;;;;9.36;52.45;95405.66;5105834;28;20039;-79
2023/12/27 03:22:48;;;;;;;9.55;4.07;;;;;;;9.32;52.49;95411.19;5104906;28;20038;-78
2023/12/27 03:25:14;;;;;;;5.72;3.80;;;;;;;9.46;52.48;95415.66;5106258;28;20034;-77
2023/12/27 03:27:39;;;;;;;8.75;3.80;;;;;;;9.52;52.13;95414.00;5104729;28;20455;-77
2023/12/27 03:30:05;;;;;;;6.90;3.75;;;;;;;9.58;52.14;95420.56;5105963;28;20452;-78
2023/12/27 03:32:30;;;;;;;10.38;4.05;;;;;;;9.52;52.32;95426.94;5105279;28;20071;-77
2023/12/27 03:34:56;;;;;;;11.18;5.43;;;;;;;9.48;52.36;95420.75;5105112;28;20115;-78
2023/12/27 03:37:22;;;;;;;7.78;4.70;;;;;;;9.55;52.41;95421.38;5105652;28;20077;-77
2023/12/27 03:39:50;;;;;;;6.55;4.10;;;;;;;9.57;52.15;95412.72;5104607;28;20027;-78
2023/12/27 03:42:19;;;;;;;10.25;5.13;;;;;;;9.56;52.20;95414.69;5106027;28;20024;-78
2023/12/27 03:44:44;;;;;;;9.00;4.50;;;;;;;9.61;52.25;95421.69;5104897;28;20028;-78
2023/12/27 03:47:10;;;;;;;10.32;5.22;;;;;;;9.68;52.25;95416.06;5106080;28;20020;-78
2023/12/27 03:49:35;;;;;;;13.05;4.53;;;;;;;9.60;52.16;95416.63;5108317;28;20020;-78
2023/12/27 03:52:01;;;;;;;9.13;4.63;;;;;;;9.41;52.42;95394.19;5108976;28;20115;-78
2023/12/27 03:54:26;;;;;;;9.27;4.53;;;;;;;9.51;52.33;95414.41;5109204;28;20085;-77
2023/12/27 03:56:51;;;;;;;9.38;4.32;;;;;;;9.54;52.53;95421.81;5108403;28;20031;-77
2023/12/27 03:59:17;;;;;;;9.55;4.32;;;;;;;9.48;52.45;95415.25;5109504;27;20032;-78
2023/12/27 04:01:42;;;;;;;10.35;4.82;;;;;;;9.51;52.67;95428.13;5106540;28;20023;-77
2023/12/27 04:04:08;;;;;;;9.43;4.13;;;;;;;9.16;52.27;95383.63;5109642;28;20494;-79
2023/12/27 04:06:33;;;;;;;9.43;4.63;;;;;;;9.47;52.70;95436.44;5108317;28;20023;-79
2023/12/27 04:08:58;;;;;;;9.90;4.72;;;;;;;9.47;52.86;95438.41;5109255;28;20055;-78
2023/12/27 04:11:24;;;;;;;8.13;4.47;;;;;;;9.43;52.54;95454.13;5107347;28;20174;-79
2023/12/27 04:13:49;;;;;;;9.85;4.57;;;;;;;9.42;52.86;95456.13;5108355;28;20040;-78
2023/12/27 04:16:15;;;;;;;8.60;5.13;;;;;;;9.41;52.89;95454.56;5109151;28;20107;-78
2023/12/27 04:18:40;;;;;;;10.73;5.03;;;;;;;9.43;52.83;95454.13;5107603;28;20034;-79
2023/12/27 04:21:06;;;;;;;8.50;4.00;;;;;;;9.42;52.97;95464.34;5109748;28;20019;-78
2023/12/27 04:23:31;;;;;;;10.05;4.43;;;;;;;9.49;52.94;95458.72;5108231;28;20012;-78
2023/12/27 04:25:56;;;;;;;9.43;4.85;;;;;;;9.40;53.33;95461.22;5109143;28;20401;-78
2023/12/27 04:28:22;;;;;;;7.32;4.35;;;;;;;9.46;53.35;95461.53;5108232;28;20081;-78
2023/12/27 04:30:48;;;;;;;8.77;4.68;;;;;;;9.43;53.28;95459.63;5108708;28;20031;-79
2023/12/27 04:33:13;;;;;;;11.02;4.97;;;;;;;9.37;53.42;95464.03;5108869;28;20123;-77
2023/12/27 04:35:38;;;;;;;8.43;4.38;;;;;;;9.42;53.61;95461.59;5107636;28;20042;-77
2023/12/27 04:38:04;;;;;;;10.25;4.70;;;;;;;9.42;53.47;95472.56;5108753;28;20050;-78
2023/12/27 04:40:29;;;;;;;8.23;3.95;;;;;;;9.40;53.68;95463.19;5107143;28;20028;-78
2023/12/27 04:42:55;;;;;;;9.40;4.85;;;;;;;9.44;53.58;95458.44;5108981;28;20031;-78
2023/12/27 04:45:20;;;;;;;7.63;3.80;;;;;;;9.44;53.88;95453.72;5107484;28;20050;-78
2023/12/27 04:47:46;;;;;;;7.18;4.35;;;;;;;9.39;54.00;95450.66;5108472;28;20453;-78
2023/12/27 04:50:11;;;;;;;13.02;4.85;;;;;;;9.43;54.07;95459.63;5108101;28;20107;-78
2023/12/27 04:52:37;;;;;;;8.52;4.05;;;;;;;9.41;54.28;95453.78;5107617;27;20031;-78
2023/12/27 04:55:02;;;;;;;10.35;4.55;;;;;;;9.29;54.60;95464.16;5108611;28;20547;-79
2023/12/27 04:57:28;;;;;;;7.00;3.58;;;;;;;9.29;54.58;95469.66;5107107;28;20474;-78
2023/12/27 04:59:53;;;;;;;7.25;3.97;;;;;;;9.30;54.70;95462.97;5108423;28;20106;-78
2023/12/27 05:02:19;;;;;;;10.13;4.55;;;;;;;9.27;54.96;95473.97;5107352;28;20435;-78
2023/12/27 05:04:44;;;;;;;7.03;4.07;;;;;;;9.38;54.58;95474.59;5108164;28;20031;-77
2023/12/27 05:07:09;;;;;;;7.75;4.85;;;;;;;9.47;54.62;95468.59;5107997;28;20023;-79
2023/12/27 05:09:35;;;;;;;7.35;4.03;;;;;;;9.42;54.75;95471.81;5107358;28;20050;-78
2023/12/27 05:12:01;;;;;;;8.02;3.88;;;;;;;9.34;54.85;95487.59;5107905;28;20073;-78
2023/12/27 05:14:27;;;;;;;8.30;3.70;;;;;;;9.26;55.22;95481.44;5105320;28;20043;-78
2023/12/27 05:16:55;;;;;;;7.35;3.90;;;;;;;9.27;55.08;95485.72;5108066;28;20023;-78
2023/12/27 05:19:20;;;;;;;7.22;3.60;;;;;;;9.28;55.16;95495.50;5106720;28;20019;-78
2023/12/27 05:21:46;;;;;;;7.43;4.00;;;;;;;9.32;55.19;95492.72;5108345;28;20028;-78
2023/12/27 05:24:11;;;;;;;9.30;4.70;;;;;;;9.33;55.04;95499.75;5107221;28;20500;-78
2023/12/27 05:26:37;;;;;;;5.80;3.95;;;;;;;9.37;54.92;95505.97;5107372;28;20497;-78
2023/12/27 05:29:02;;;;;;;8.57;4.15;;;;;;;9.39;54.89;95508.28;5107407;28;20027;-78
2023/12/27 05:31:27;;;;;;;6.47;4.32;;;;;;;9.38;54.74;95509.50;5107022;28;20028;-78
2023/12/27 05:33:53;;;;;;;9.95;4.07;;;;;;;9.34;55.03;95514.25;5107905;27;20470;-79
2023/12/27 05:36:18;;;;;;;8.90;4.15;;;;;;;9.38;54.98;95517.72;5106470;28;20026;-77
2023/12/27 05:38:43;;;;;;;9.50;3.92;;;;;;;9.32;55.12;95515.44;5107685;28;20038;-77
2023/12/27 05:41:09;;;;;;;8.77;3.55;;;;;;;9.38;55.01;95517.72;5106567;28;20020;-77
2023/12/27 05:43:34;;;;;;;7.57;3.50;;;;;;;9.31;55.07;95521.34;5107415;27;20104;-77
2023/12/27 05:46:00;;;;;;;8.00;4.38;;;;;;;9.31;55.20;95532.31;5106857;28;20027;-78
2023/12/27 05:48:25;;;;;;;8.10;4.15;;;;;;;9.38;55.07;95545.94;5106812;28;20027;-78
2023/12/27 05:50:50;;;;;;;7.22;4.22;;;;;;;9.40;55.00;95551.00;5107288;28;20024;-78
2023/12/27 05:53:16;;;;;;;9.25;4.07;;;;;;;9.46;55.12;95558.38;5106295;28;20028;-78
2023/12/27 05:55:41;;;;;;;7.03;3.80;;;;;;;9.44;54.89;95560.75;5107108;28;20203;-79
2023/12/27 05:58:07;;;;;;;7.13;4.18;;;;;;;9.45;54.89;95559.53;5106484;28;20016;-78
2023/12/27 06:00:33;;;;;;;10.65;4.45;;;;;;;9.40;55.11;95551.78;5107308;28;20064;-79
2023/12/27 06:02:58;;;;;;;10.27;4.97;;;;;;;9.42;55.22;95560.38;5106389;28;20020;-78
2023/12/27 06:05:24;;;;;;;8.70;4.60;;;;;;;9.43;55.26;95555.69;5106907;28;20427;-78
2023/12/27 06:07:50;;;;;;;9.93;4.75;;;;;;;9.41;55.19;95558.06;5106593;28;20020;-78
2023/12/27 06:10:15;;;;;;;7.90;4.20;;;;;;;9.46;55.17;95571.28;5106376;28;20039;-78
2023/12/27 06:12:41;;;;;;;9.85;4.50;;;;;;;9.45;55.17;95569.75;5106261;28;20133;-80
2023/12/27 06:15:07;;;;;;;9.85;4.53;;;;;;;9.50;55.10;95569.28;5105693;28;20460;-79
2023/12/27 06:17:33;;;;;;;7.30;4.30;;;;;;;9.46;55.40;95574.84;5107016;28;20030;-79
2023/12/27 06:19:58;;;;;;;11.45;4.47;;;;;;;9.44;55.26;95573.69;5105650;28;20031;-79
2023/12/27 06:22:24;;;;;;;9.32;4.63;;;;;;;9.48;55.13;95583.44;5106874;28;20024;-77
2023/12/27 06:24:49;;;;;;;8.35;4.68;;;;;;;9.44;55.13;95577.22;5105898;28;20058;-79
2023/12/27 06:27:15;;;;;;;10.70;5.13;;;;;;;9.46;55.14;95566.63;5106457;28;20442;-78
2023/12/27 06:29:41;;;;;;;10.75;5.28;;;;;;;9.39;55.40;95565.91;5106569;28;20452;-78
2023/12/27 06:32:07;;;;;;;9.23;4.50;;;;;;;9.31;55.63;95571.50;5105772;27;20026;-79
2023/12/27 06:34:32;;;;;;;8.90;5.97;;;;;;;9.37;55.71;95579.28;5106293;28;20031;-78
2023/12/27 06:36:57;;;;;;;11.18;5.82;;;;;;;9.31;55.53;95581.72;5105616;28;20050;-78
2023/12/27 06:39:23;;;;;;;12.13;5.85;;;;;;;9.32;55.89;95583.25;5106863;28;20030;-78
2023/12/27 06:41:48;;;;;;;10.93;6.88;;;;;;;9.33;55.76;95590.28;5105194;28;20027;-79
2023/12/27 06:44:14;;;;;;;9.20;6.00;;;;;;;9.34;55.93;95583.63;5106616;28;20096;-78
2023/12/27 06:46:39;;;;;;;13.07;6.03;;;;;;;9.37;55.77;95593.00;5106087;28;20015;-79
2023/12/27 06:49:04;;;;;;;15.50;6.97;;;;;;;9.45;55.53;95600.72;5105647;28;20038;-79
2023/12/27 06:51:30;;;;;;;11.07;6.15;;;;;;;9.45;55.60;95602.69;5104714;28;20023;-79
2023/12/27 06:53:55;;;;;;;13.18;6.20;;;;;;;9.56;55.51;95606.06;5105485;28;20482;-78
2023/12/27 06:56:21;;;;;;;13.23;5.70;;;;;;;9.49;55.60;95615.16;5106499;28;20068;-79
2023/12/27 06:58:46;;;;;;;11.32;6.50;;;;;;;9.48;55.68;95629.31;5104807;28;20446;-78
2023/12/27 07:01:12;;;;;;;14.38;7.05;;;;;;;9.50;55.79;95633.19;5106732;28;20016;-78
2023/12/27 07:03:38;;;;;;;12.35;6.95;;;;;;;9.54;55.66;95633.16;5103832;28;20059;-78
2023/12/27 07:06:04;;;;;;;9.07;6.25;;;;;;;9.55;55.75;95640.19;5105947;28;20055;-79
2023/12/27 07:08:30;;;;;;;12.70;6.30;;;;;;;9.57;55.64;95649.56;5105596;28;20553;-78
2023/12/27 07:10:55;;;;;;;13.23;6.72;;;;;;;9.63;55.58;95663.59;5105499;28;20032;-77
2023/12/27 07:13:21;;;;;;;15.25;7.90;;;;;;;9.62;55.42;95658.53;5105821;28;20020;-79
2023/12/27 07:15:46;;;;;;;15.15;7.25;;;;;;;9.70;55.47;95676.47;5104552;28;20035;-77
2023/12/27 07:18:11;;;;;;;13.05;7.28;;;;;;;9.74;55.17;95680.69;5106441;28;20027;-79
2023/12/27 07:20:37;;;;;;;11.73;7.10;;;;;;;9.76;55.31;95678.34;5104936;28;20040;-78
2023/12/27 07:23:03;;;;;;;8.80;6.15;;;;;;;9.79;55.19;95676.72;5106717;28;20106;-78
2023/12/27 07:25:30;;;;;;;12.48;6.70;;;;;;;9.81;55.16;95686.13;5109850;28;20019;-81
2023/12/27 07:27:55;;;;;;;11.95;6.63;;;;;;;9.88;54.92;95690.72;5109325;28;20024;-78
2023/12/27 07:30:22;;;;;;;11.82;7.25;;;;;;;9.93;54.87;95692.25;5110061;28;20085;-78
2023/12/27 07:32:47;;;;;;;12.15;6.13;;;;;;;10.03;54.84;95699.53;5108773;28;20027;-78
2023/12/27 07:35:13;;;;;;;11.00;5.53;;;;;;;10.10;54.70;95686.47;5110176;28;20118;-79
2023/12/27 07:37:38;;;;;;;8.93;5.35;;;;;;;10.25;54.37;95692.56;5109010;28;20066;-79
2023/12/27 07:40:05;;;;;;;12.38;5.57;;;;;;;10.41;54.12;95688.41;5110228;28;20112;-80
2023/12/27 07:42:30;;;;;;;9.50;6.03;;;;;;;10.64;53.33;95688.41;5108778;28;20023;-78
2023/12/27 07:44:55;;;;;;;12.55;5.93;;;;;;;10.95;52.70;95685.50;5109397;28;20028;-79
2023/12/27 07:47:21;;;;;;;8.90;5.10;;;;;;;11.24;51.93;95686.53;5109850;28;20019;-79
2023/12/27 07:49:46;;;;;;;13.80;5.95;;;;;;;11.55;51.04;95694.56;5108911;28;20020;-78
2023/12/27 07:52:12;;;;;;;11.65;6.03;;;;;;;11.86;50.30;95681.34;5108373;28;20081;-79
2023/12/27 07:54:37;;;;;;;9.80;5.40;;;;;;;12.32;49.42;95698.81;5108207;28;20438;-78
2023/12/27 07:57:03;;;;;;;10.68;4.90;;;;;;;13.10;47.48;95713.41;5109825;28;20035;-78
2023/12/27 07:59:28;;;;;;;14.85;5.00;;;;;;;14.60;44.42;95709.88;5108714;28;20027;-79
2023/12/27 08:01:54;;;;;;;9.65;4.97;;;;;;;16.26;40.48;95700.09;5109218;28;20028;-78
2023/12/27 08:04:19;;;;;;;7.82;4.40;;;;;;;17.65;37.53;95699.91;5109082;28;20053;-78
2023/12/27 08:06:46;;;;;;;7.18;4.13;;;;;;;18.79;35.13;95720.50;5109202;28;20023;-78
2023/12/27 08:09:12;;;;;;;8.38;4.97;;;;;;;19.79;33.03;95725.88;5109571;28;20078;-78
2023/12/27 08:11:37;;;;;;;8.35;4.70;;;;;;;20.63;31.75;95727.34;5108102;28;20617;-78
2023/12/27 08:14:03;;;;;;;7.60;4.80;;;;;;;21.33;30.31;95737.75;5109284;28;20111;-78
2023/12/27 08:16:29;;;;;;;11.25;5.25;;;;;;;22.08;29.35;95733.28;5108471;28;20031;-79
2023/12/27 08:18:54;;;;;;;8.85;4.68;;;;;;;22.75;27.93;95731.84;5109425;28;20030;-78
2023/12/27 08:21:19;;;;;;;9.20;5.07;;;;;;;23.28;27.33;95733.25;5108679;27;20406;-80
2023/12/27 08:23:45;;;;;;;9.10;4.85;;;;;;;23.77;26.46;95722.75;5108540;28;20024;-79
2023/12/27 08:26:11;;;;;;;8.07;4.95;;;;;;;24.43;25.59;95745.91;5108620;28;20478;-78
2023/12/27 08:28:37;;;;;;;10.63;5.18;;;;;;;24.99;24.82;95737.44;5108087;28;20425;-78
2023/12/27 08:31:06;;;;;;;6.85;4.65;;;;;;;25.62;23.83;95738.84;5108989;28;20546;-78
2023/12/27 08:33:32;;;;;;;9.15;4.57;;;;;;;25.67;23.77;95746.50;5107536;28;20023;-79
2023/12/27 08:36:00;;;;;;;9.02;4.70;;;;;;;26.35;23.04;95747.72;5107710;28;20177;-78
2023/12/27 08:38:26;;;;;;;7.20;4.25;;;;;;;27.01;22.40;95753.38;5108007;27;20027;-78
2023/12/27 08:40:51;;;;;;;5.63;4.25;;;;;;;27.41;21.73;95754.56;5108559;28;20032;-79
2023/12/27 08:43:20;;;;;;;8.68;5.00;;;;;;;27.96;21.36;95754.44;5108405;28;20090;-77
2023/12/27 08:45:48;;;;;;;9.65;5.93;;;;;;;28.56;20.54;95773.97;5107569;28;20019;-78
2023/12/27 08:48:14;;;;;;;10.32;6.78;;;;;;;28.88;20.28;95776.03;5109178;27;20020;-78
2023/12/27 08:50:40;;;;;;;10.25;5.00;;;;;;;29.26;19.57;95777.47;5107655;28;20027;-77
2023/12/27 08:53:06;;;;;;;8.18;3.90;;;;;;;29.50;19.41;95776.50;5108863;28;20114;-78
2023/12/27 08:55:32;;;;;;;5.93;4.03;;;;;;;29.73;19.30;95779.72;5108021;28;20105;-78
2023/12/27 08:57:57;;;;;;;7.85;4.10;;;;;;;29.97;19.13;95769.44;5108014;28;20027;-77
2023/12/27 09:00:22;;;;;;;7.63;4.00;;;;;;;30.40;18.10;95769.06;5107882;28;20026;-78
2023/12/27 09:02:48;;;;;;;5.85;3.70;;;;;;;30.54;18.01;95769.78;5106465;28;20446;-78
2023/12/27 09:05:13;;;;;;;5.72;3.47;;;;;;;30.83;17.72;95765.75;5108244;28;20020;-78
2023/12/27 09:07:39;;;;;;;6.68;3.53;;;;;;;30.77;17.91;95776.47;5107265;28;20110;-78
2023/12/27 09:10:04;;;;;;;5.63;3.35;;;;;;;31.03;17.65;95769.16;5108416;28;20019;-78
2023/12/27 09:12:30;;;;;;;9.48;3.75;;;;;;;31.17;17.54;95765.69;5107430;28;20027;-76
2023/12/27 09:14:55;;;;;;;5.75;3.35;;;;;;;31.44;17.40;95754.19;5107714;28;20075;-77
2023/12/27 09:17:21;;;;;;;8.18;4.05;;;;;;;31.59;16.89;95757.09;5107626;28;20521;-77
2023/12/27 09:19:46;;;;;;;7.07;3.15;;;;;;;31.81;16.67;95755.75;5107849;28;20588;-77
2023/12/27 09:22:12;;;;;;;6.55;3.30;;;;;;;32.28;16.44;95748.94;5107613;28;20028;-77
2023/12/27 09:24:37;;;;;;;6.35;3.70;;;;;;;32.43;16.71;95748.28;5107150;28;20026;-78
2023/12/27 09:27:03;;;;;;;6.45;3.65;;;;;;;32.92;16.07;95752.94;5107676;28;20486;-78
2023/12/27 09:29:30;;;;;;;6.50;4.07;;;;;;;33.23;15.49;95740.25;5107037;28;20024;-78
2023/12/27 09:31:56;;;;;;;10.15;4.00;;;;;;;33.52;15.57;95746.53;5107724;28;20023;-78
2023/12/27 09:34:21;;;;;;;5.88;3.30;;;;;;;33.63;15.15;95741.75;5106873;28;20024;-78
2023/12/27 09:36:46;;;;;;;6.25;3.38;;;;;;;33.66;14.92;95721.41;5106085;28;20038;-77
2023/12/27 09:39:13;;;;;;;5.88;3.22;;;;;;;33.64;14.92;95729.78;5107102;28;20102;-77
2023/12/27 09:41:40;;;;;;;7.20;3.13;;;;;;;33.42;15.07;95731.34;5106598;28;20119;-77
2023/12/27 09:44:07;;;;;;;5.47;2.80;;;;;;;33.57;14.64;95729.81;5107570;28;20088;-77
2023/12/27 09:46:33;;;;;;;5.50;3.05;;;;;;;34.00;14.53;95706.69;5105876;28;20028;-78
2023/12/27 09:48:58;;;;;;;5.10;2.60;;;;;;;33.88;14.80;95716.22;5106167;28;20024;-77
2023/12/27 09:51:24;;;;;;;4.13;2.38;;;;;;;33.75;14.69;95722.91;5106340;28;20461;-78
2023/12/27 09:53:50;;;;;;;5.88;2.75;;;;;;;33.67;15.09;95720.09;5107522;28;20034;-77
2023/12/27 09:56:17;;;;;;;4.07;2.60;;;;;;;33.28;14.86;95710.81;5106535;28;20011;-77
2023/12/27 09:58:42;;;;;;;5.15;2.47;;;;;;;33.39;15.07;95712.53;5105412;28;20059;-78
2023/12/27 10:01:09;;;;;;;5.55;2.83;;;;;;;33.04;15.47;95714.25;5105841;28;20474;-79
2023/12/27 10:03:36;;;;;;;6.28;3.20;;;;;;;32.60;15.33;95713.59;5106812;28;20016;-77
2023/12/27 10:06:22;;;;;;;4.75;2.90;;;;;;;32.25;15.91;95718.81;5107567;28;20474;-77
2023/12/27 10:08:48;;;;;;;5.38;3.05;;;;;;;32.03;16.28;95722.31;5106066;28;20486;-78
2023/12/27 10:11:13;;;;;;;10.05;5.88;;;;;;;32.05;16.31;95719.66;5105866;28;20069;-78
2023/12/27 10:13:41;;;;;;;5.65;3.80;;;;;;;31.72;16.54;95720.06;5106273;28;20051;-76
2023/12/27 10:16:06;;;;;;;6.30;3.50;;;;;;;31.68;16.18;95718.91;5106262;28;20110;-78
2023/12/27 10:18:32;;;;;;;6.05;3.25;;;;;;;31.49;16.63;95721.25;5106723;28;20091;-77
2023/12/27 10:20:58;;;;;;;6.47;2.80;;;;;;;31.44;16.72;95711.56;5105963;28;20059;-76
2023/12/27 10:23:24;;;;;;;7.13;3.47;;;;;;;31.53;16.56;95708.19;5107148;28;20114;-78
2023/12/27 10:25:51;;;;;;;7.05;3.80;;;;;;;31.40;16.60;95699.78;5105714;28;20529;-77
2023/12/27 10:28:16;;;;;;;7.65;3.63;;;;;;;30.90;16.99;95685.56;5107017;28;20035;-78
2023/12/27 10:30:44;;;;;;;6.05;3.78;;;;;;;31.07;17.17;95681.53;5105949;28;20093;-77
2023/12/27 10:33:09;;;;;;;8.30;3.30;;;;;;;31.25;16.78;95683.41;5106495;28;20176;-77
2023/12/27 10:35:38;;;;;;;3.72;2.70;;;;;;;31.35;16.78;95675.91;5106586;28;20542;-77
2023/12/27 10:38:06;;;;;;;4.90;2.70;;;;;;;31.57;16.79;95676.59;5104425;28;20375;-77
2023/12/27 10:40:33;;;;;;;4.72;2.65;;;;;;;31.76;16.34;95682.00;5106760;28;20059;-79
2023/12/27 10:42:59;;;;;;;7.82;3.15;;;;;;;31.60;16.47;95681.94;5105309;28;20034;-78
2023/12/27 10:45:25;;;;;;;4.82;2.72;;;;;;;31.77;16.18;95677.81;5106689;28;20047;-77
2023/12/27 10:48:04;;;;;;;7.53;3.55;;;;;;;31.88;16.70;95680.38;5105671;28;20028;-78
2023/12/27 10:50:30;;;;;;;6.20;2.90;;;;;;;32.02;16.35;95683.84;5104835;28;20039;-78
2023/12/27 10:53:08;;;;;;;7.30;3.53;;;;;;;32.15;15.86;95678.00;5106269;28;20016;-78
2023/12/27 10:55:35;;;;;;;4.93;2.67;;;;;;;32.73;15.89;95684.97;5105815;28;20172;-78
2023/12/27 10:58:02;;;;;;;4.55;2.53;;;;;;;33.12;14.91;95675.13;5106259;28;20339;-77
2023/12/27 11:00:28;;;;;;;6.28;3.00;;;;;;;34.01;14.70;95678.97;5105282;28;20027;-77
2023/12/27 11:02:54;;;;;;;6.65;3.33;;;;;;;34.86;14.18;95677.88;5106199;28;20081;-78
2023/12/27 11:05:22;;;;;;;5.55;3.13;;;;;;;35.42;13.37;95680.47;5105733;28;20028;-79
2023/12/27 11:07:52;;;;;;;4.88;2.92;;;;;;;36.01;12.88;95690.34;5105743;28;20020;-77
2023/12/27 11:10:17;;;;;;;6.70;2.88;;;;;;;36.36;12.39;95683.22;5106429;28;20024;-83
2023/12/27 11:12:45;;;;;;;7.57;3.35;;;;;;;36.63;12.59;95693.94;5103794;28;20371;-78
2023/12/27 11:15:13;;;;;;;5.15;2.88;;;;;;;36.62;12.33;95698.91;5104588;28;20097;-82
2023/12/27 11:17:39;;;;;;;7.57;3.50;;;;;;;36.84;12.41;95699.16;5105188;28;20481;-81
2023/12/27 11:20:06;;;;;;;5.80;3.38;;;;;;;37.00;12.21;95691.13;5106639;28;20024;-79
2023/12/27 11:22:32;;;;;;;7.40;4.70;;;;;;;37.52;11.86;95685.84;5104399;28;20027;-80
2023/12/27 11:24:58;;;;;;;6.72;3.50;;;;;;;37.92;11.70;95687.41;5105681;28;20043;-81
2023/12/27 11:27:24;;;;;;;6.75;3.00;;;;;;;37.82;11.45;95695.25;5104617;28;20366;-81
2023/12/27 11:29:50;;;;;;;5.30;3.28;;;;;;;37.35;12.09;95678.13;5105188;28;20110;-88